Time;durP1;ratioP1;P1;durP2;ratioP2;P2;SDS_P1;SDS_P2;PMS_P1;PMS_P2;Temp;Humidity;BMP_temperature;BMP_pressure;BME280_temperature;BME280_humidity;BME280_pressure;Samples;Min_cycle;Max_cycle;Signal;HPM_P1;HPM_P2
2022/06/29 00:00:29;;;;;;;9.77;8.90;;;;;;;19.26;71.51;95245.84;4974279;28;20228;-72
2022/06/29 00:02:56;;;;;;;10.30;9.35;;;;;;;19.28;72.02;95261.66;4972235;28;20286;-70
2022/06/29 00:05:23;;;;;;;11.73;10.57;;;;;;;19.43;71.46;95262.31;4984024;28;20224;-72
2022/06/29 00:07:50;;;;;;;11.13;10.02;;;;;;;19.35;71.71;95259.81;4971914;28;20534;-72
2022/06/29 00:10:16;;;;;;;10.73;9.70;;;;;;;19.39;71.51;95259.22;4988528;28;20200;-69
2022/06/29 00:12:46;;;;;;;10.20;9.30;;;;;;;19.35;71.59;95258.00;4958666;28;20229;-70
2022/06/29 00:15:21;;;;;;;9.82;9.07;;;;;;;19.19;70.10;95250.34;4969418;28;20255;-68
2022/06/29 00:17:47;;;;;;;10.93;9.82;;;;;;;19.07;70.65;95252.75;4969453;28;20326;-68
2022/06/29 00:20:13;;;;;;;10.68;9.55;;;;;;;18.90;71.02;95257.59;4973467;28;20314;-72
2022/06/29 00:22:42;;;;;;;9.07;8.27;;;;;;;18.99;70.39;95258.25;4974599;28;20243;-70
2022/06/29 00:25:09;;;;;;;8.70;8.07;;;;;;;18.82;71.11;95262.25;4968962;28;20774;-70
2022/06/29 00:27:35;;;;;;;8.60;8.00;;;;;;;18.87;71.35;95257.16;4972029;28;20234;-68
2022/06/29 00:30:07;;;;;;;9.05;8.25;;;;;;;18.81;72.21;95247.31;4974370;28;20260;-72
2022/06/29 00:32:33;;;;;;;8.65;7.90;;;;;;;18.91;71.17;95245.91;4967924;28;20232;-69
2022/06/29 00:35:01;;;;;;;8.85;7.97;;;;;;;18.98;71.18;95243.31;4975421;28;20223;-69
2022/06/29 00:37:29;;;;;;;9.50;8.80;;;;;;;19.06;70.56;95242.28;4974209;28;20899;-70
2022/06/29 00:40:02;;;;;;;9.55;8.65;;;;;;;19.10;70.72;95241.69;4985274;28;20258;-71
2022/06/29 00:42:27;;;;;;;9.70;8.80;;;;;;;19.16;70.46;95245.41;4962589;28;20232;-71
2022/06/29 00:44:53;;;;;;;9.57;8.52;;;;;;;19.03;70.52;95234.69;4968311;28;20228;-73
2022/06/29 00:47:18;;;;;;;10.02;9.00;;;;;;;18.87;71.66;95223.38;4981880;28;20228;-73
2022/06/29 00:49:45;;;;;;;9.45;8.63;;;;;;;18.88;70.82;95240.19;4974973;28;20238;-73
2022/06/29 00:52:12;;;;;;;8.48;7.82;;;;;;;19.03;70.34;95256.00;4978330;28;20200;-69
2022/06/29 00:54:54;;;;;;;7.72;7.13;;;;;;;18.97;69.78;95238.16;4980939;28;20768;-71
2022/06/29 00:57:29;;;;;;;8.57;7.95;;;;;;;18.92;69.98;95231.59;4970925;28;20220;-70
2022/06/29 01:00:07;;;;;;;9.35;8.52;;;;;;;18.82;70.34;95240.94;4967177;28;20231;-69
2022/06/29 01:02:39;;;;;;;9.30;8.50;;;;;;;18.57;71.22;95235.25;4961237;28;21135;-71
2022/06/29 01:05:06;;;;;;;9.38;8.07;;;;;;;18.81;70.10;95241.97;4972552;28;20225;-69
2022/06/29 01:07:33;;;;;;;8.90;8.02;;;;;;;18.84;70.20;95236.25;4983412;28;20289;-69
2022/06/29 01:10:00;;;;;;;9.75;7.30;;;;;;;18.85;70.00;95222.75;4967135;28;20224;-71
2022/06/29 01:12:26;;;;;;;8.80;8.10;;;;;;;18.85;70.11;95229.91;4975764;28;20789;-71
2022/06/29 01:14:53;;;;;;;9.07;8.27;;;;;;;18.83;70.34;95223.97;4968595;28;20656;-70
2022/06/29 01:17:22;;;;;;;9.15;8.23;;;;;;;18.70;70.71;95220.16;4967440;28;20220;-72
2022/06/29 01:19:48;;;;;;;8.93;8.13;;;;;;;18.80;70.20;95219.03;4948804;28;20220;-72
2022/06/29 01:22:20;;;;;;;9.20;8.27;;;;;;;18.78;70.21;95211.22;4979576;28;20215;-72
2022/06/29 01:24:46;;;;;;;9.75;8.80;;;;;;;18.78;70.12;95218.41;4979030;28;20710;-70
2022/06/29 01:27:23;;;;;;;9.32;8.52;;;;;;;18.78;69.79;95218.41;4973176;28;20286;-72
2022/06/29 01:29:50;;;;;;;9.18;8.38;;;;;;;18.69;70.53;95218.53;4963239;28;20297;-71
2022/06/29 01:32:16;;;;;;;9.38;8.52;;;;;;;18.64;70.82;95214.81;4967823;28;20327;-70
2022/06/29 01:34:49;;;;;;;9.15;8.27;;;;;;;18.67;70.95;95219.75;4976144;28;20799;-72
2022/06/29 01:37:15;;;;;;;9.48;8.68;;;;;;;18.77;70.33;95219.44;4980056;28;20251;-72
2022/06/29 01:39:41;;;;;;;9.65;8.70;;;;;;;18.62;70.91;95228.31;4976457;28;20227;-71
2022/06/29 01:42:08;;;;;;;9.43;8.57;;;;;;;18.74;70.34;95225.94;4988694;28;20244;-70
2022/06/29 01:44:35;;;;;;;9.15;8.35;;;;;;;18.82;70.13;95227.63;4981779;28;20231;-71
2022/06/29 01:47:01;;;;;;;9.55;8.75;;;;;;;18.82;69.64;95224.97;4978949;28;20730;-70
2022/06/29 01:49:28;;;;;;;8.80;8.02;;;;;;;18.67;70.39;95223.22;4965979;28;20220;-72
2022/06/29 01:51:54;;;;;;;9.77;8.85;;;;;;;18.60;70.90;95218.88;4961410;28;20224;-73
2022/06/29 01:54:20;;;;;;;9.32;8.40;;;;;;;18.58;70.75;95223.56;4965068;28;20231;-67
2022/06/29 01:56:46;;;;;;;9.00;8.30;;;;;;;18.45;71.36;95213.69;4970112;28;20303;-69
2022/06/29 01:59:11;;;;;;;12.05;8.82;;;;;;;18.49;71.31;95212.25;4984796;28;20229;-69
2022/06/29 02:01:37;;;;;;;8.88;8.07;;;;;;;18.59;70.41;95206.59;4963948;28;20223;-68
2022/06/29 02:04:03;;;;;;;9.15;8.30;;;;;;;18.54;70.84;95209.84;4978903;28;20232;-71
2022/06/29 02:06:29;;;;;;;9.43;8.68;;;;;;;18.55;70.58;95215.97;4979569;28;20334;-67
2022/06/29 02:08:54;;;;;;;9.75;8.40;;;;;;;18.65;69.89;95217.28;4958893;28;20240;-72
2022/06/29 02:11:20;;;;;;;9.38;8.02;;;;;;;18.51;70.02;95203.06;4968161;28;20584;-70
2022/06/29 02:13:46;;;;;;;8.20;7.40;;;;;;;18.58;69.33;95215.59;4969183;28;20203;-72
2022/06/29 02:16:12;;;;;;;9.02;7.82;;;;;;;18.59;69.34;95204.75;4971872;28;20245;-71
2022/06/29 02:18:37;;;;;;;8.77;8.02;;;;;;;18.73;68.45;95197.63;4974306;28;20230;-72
2022/06/29 02:21:03;;;;;;;8.93;8.10;;;;;;;18.67;68.32;95185.13;4955949;28;20221;-69
2022/06/29 02:23:28;;;;;;;9.05;8.25;;;;;;;18.51;68.76;95189.75;4967879;28;20219;-68
2022/06/29 02:25:54;;;;;;;8.68;7.82;;;;;;;18.42;69.73;95200.78;4970529;28;20215;-68
2022/06/29 02:28:19;;;;;;;8.60;7.90;;;;;;;18.45;69.64;95195.88;4967059;28;20215;-71
2022/06/29 02:36:13;;;;;;;8.20;7.43;;;;;;;18.23;70.66;95191.63;4966935;28;20258;-68
2022/06/29 02:38:38;;;;;;;9.43;8.52;;;;;;;18.38;69.92;95181.69;4968199;28;20765;-72
2022/06/29 02:41:04;;;;;;;9.15;8.32;;;;;;;18.34;69.82;95182.28;4964003;28;20240;-67
2022/06/29 02:43:29;;;;;;;9.65;8.70;;;;;;;18.32;69.86;95185.13;4973031;28;20216;-71
2022/06/29 02:45:55;;;;;;;8.98;8.23;;;;;;;18.29;69.97;95172.22;4969674;28;20225;-71
2022/06/29 02:48:21;;;;;;;9.40;8.45;;;;;;;18.23;70.35;95170.31;4975418;28;20215;-72
2022/06/29 02:50:47;;;;;;;8.63;7.82;;;;;;;18.20;70.19;95168.91;4978296;28;20224;-74
2022/06/29 02:53:12;;;;;;;8.70;8.00;;;;;;;18.27;70.61;95174.25;4967088;28;20251;-68
2022/06/29 02:55:38;;;;;;;8.40;7.72;;;;;;;18.28;70.10;95173.22;4964770;28;20230;-74
2022/06/29 02:58:03;;;;;;;10.98;9.05;;;;;;;18.18;70.73;95178.09;4964473;28;20335;-73
2022/06/29 03:00:29;;;;;;;9.32;8.50;;;;;;;18.19;70.83;95166.44;4965876;28;20232;-68
2022/06/29 03:02:54;;;;;;;8.68;7.97;;;;;;;17.99;71.42;95167.13;4965850;28;20244;-71
2022/06/29 03:05:20;;;;;;;10.43;9.38;;;;;;;17.69;73.00;95176.25;4971403;28;20720;-68
2022/06/29 03:07:45;;;;;;;10.18;8.85;;;;;;;17.88;72.80;95174.78;4974677;28;20207;-72
2022/06/29 03:10:11;;;;;;;9.85;8.85;;;;;;;18.13;71.49;95176.00;4970544;28;20314;-72
2022/06/29 03:12:36;;;;;;;11.85;9.20;;;;;;;18.20;71.26;95170.72;4964662;28;20251;-71
2022/06/29 03:15:02;;;;;;;9.52;8.68;;;;;;;17.98;72.44;95181.41;4968351;28;20324;-74
2022/06/29 03:17:27;;;;;;;10.48;8.40;;;;;;;18.08;71.39;95170.44;4970421;28;20236;-70
2022/06/29 03:19:53;;;;;;;13.40;9.52;;;;;;;18.31;70.15;95178.19;4966119;28;20785;-70
2022/06/29 03:22:18;;;;;;;9.95;8.90;;;;;;;18.31;69.55;95172.84;4970905;28;20217;-73
2022/06/29 03:24:43;;;;;;;9.82;8.50;;;;;;;18.30;69.44;95176.53;4966193;28;20285;-69
2022/06/29 03:27:09;;;;;;;10.48;9.50;;;;;;;18.38;69.47;95183.53;4965240;28;20307;-74
2022/06/29 03:29:34;;;;;;;10.82;9.68;;;;;;;18.32;69.51;95182.47;4967309;28;20238;-68
2022/06/29 03:32:00;;;;;;;11.55;10.25;;;;;;;18.41;69.28;95181.28;4954975;28;20228;-73
2022/06/29 03:34:25;;;;;;;10.52;9.68;;;;;;;18.35;69.49;95179.41;4961200;28;20212;-69
2022/06/29 03:36:51;;;;;;;11.82;10.63;;;;;;;18.32;69.48;95171.00;4967837;28;20343;-69
2022/06/29 03:39:16;;;;;;;11.35;10.30;;;;;;;18.39;69.20;95163.88;4968673;28;20226;-74
2022/06/29 03:41:42;;;;;;;11.68;10.57;;;;;;;18.31;69.31;95167.53;4970296;28;20738;-74
2022/06/29 03:44:07;;;;;;;12.38;11.38;;;;;;;18.27;69.95;95174.25;4968664;28;20484;-73
2022/06/29 03:46:33;;;;;;;11.82;10.63;;;;;;;18.26;70.23;95185.94;4966388;28;20224;-73
2022/06/29 03:48:58;;;;;;;12.38;11.07;;;;;;;18.28;70.12;95181.22;4956760;28;20228;-74
2022/06/29 03:51:24;;;;;;;10.95;10.07;;;;;;;18.17;70.41;95177.25;4958786;28;20220;-74
2022/06/29 03:53:49;;;;;;;12.02;10.77;;;;;;;18.25;70.53;95171.78;4952900;28;20376;-74
2022/06/29 03:56:14;;;;;;;16.90;11.77;;;;;;;18.33;70.06;95170.81;4965304;28;20638;-73
2022/06/29 03:58:40;;;;;;;12.23;11.23;;;;;;;18.34;69.99;95169.81;4965778;28;20208;-74
2022/06/29 04:01:06;;;;;;;13.07;11.80;;;;;;;18.36;70.26;95170.41;4970279;28;20239;-74
2022/06/29 04:03:31;;;;;;;12.75;11.50;;;;;;;18.21;71.93;95175.84;4962882;28;20228;-73
2022/06/29 04:05:57;;;;;;;12.52;11.52;;;;;;;18.20;71.97;95160.06;4956380;28;20220;-74
2022/06/29 04:08:23;;;;;;;13.63;12.40;;;;;;;18.20;72.28;95160.91;4962677;28;20283;-74
2022/06/29 04:10:48;;;;;;;12.77;11.43;;;;;;;18.11;72.66;95156.75;4962452;28;20279;-74
2022/06/29 04:13:14;;;;;;;14.13;12.45;;;;;;;18.25;72.28;95152.31;4964233;28;20195;-74
2022/06/29 04:15:40;;;;;;;14.18;12.70;;;;;;;18.28;71.93;95152.78;4963657;28;20221;-73
2022/06/29 04:18:06;;;;;;;12.77;11.50;;;;;;;18.38;71.29;95152.41;4977180;28;20288;-74
2022/06/29 04:23:15;;;;;;;13.55;12.18;;;;;;;18.66;70.05;95156.84;4961204;28;20321;-73
2022/06/29 04:25:41;;;;;;;12.98;11.88;;;;;;;18.93;69.56;95150.63;4964662;28;20436;-72
2022/06/29 04:28:06;;;;;;;13.10;11.93;;;;;;;18.88;69.33;95152.25;4964430;28;20204;-73
2022/06/29 04:30:35;;;;;;;14.45;13.15;;;;;;;18.85;69.06;95142.81;4972695;28;20228;-71
2022/06/29 04:33:00;;;;;;;13.75;12.52;;;;;;;18.92;69.12;95145.50;4971710;28;20220;-72
2022/06/29 04:35:26;;;;;;;14.45;12.93;;;;;;;18.78;68.98;95141.16;4979803;28;20229;-73
2022/06/29 04:37:51;;;;;;;14.70;13.30;;;;;;;18.83;69.01;95142.19;4962111;28;20209;-72
2022/06/29 04:40:17;;;;;;;15.85;13.98;;;;;;;18.61;69.73;95133.47;4974095;28;20267;-68
2022/06/29 04:42:42;;;;;;;13.73;12.55;;;;;;;18.41;70.92;95136.03;4983908;28;20235;-68
2022/06/29 04:46:19;;;;;;;15.48;14.05;;;;;;;18.54;71.42;95137.94;4959715;28;20231;-68
2022/06/29 04:47:53;;;;;;;13.57;12.27;;;;;;;18.65;72.04;95140.03;4965204;28;20251;-69
2022/06/29 04:50:19;;;;;;;14.55;13.30;;;;;;;18.97;70.92;95142.22;4972212;28;20220;-71
2022/06/29 04:52:44;;;;;;;14.60;13.40;;;;;;;18.92;70.67;95148.16;4975010;28;20207;-71
2022/06/29 04:55:10;;;;;;;14.70;13.20;;;;;;;18.98;70.17;95151.84;4969748;28;20233;-73
2022/06/29 04:57:35;;;;;;;14.88;13.52;;;;;;;19.05;70.17;95155.38;4976220;28;20231;-70
2022/06/29 05:00:01;;;;;;;14.35;13.05;;;;;;;19.13;70.22;95158.66;4961523;28;20291;-71
2022/06/29 05:02:26;;;;;;;17.30;13.32;;;;;;;19.04;70.66;95161.75;4966423;28;20236;-71
2022/06/29 05:04:52;;;;;;;14.57;12.90;;;;;;;19.15;69.96;95166.47;4968445;28;21218;-70
2022/06/29 05:07:17;;;;;;;14.98;13.50;;;;;;;19.25;69.08;95164.25;4970343;28;20594;-69
2022/06/29 05:09:44;;;;;;;13.80;12.60;;;;;;;19.26;68.70;95165.06;4970019;28;20793;-70
2022/06/29 05:12:10;;;;;;;14.65;13.25;;;;;;;19.02;69.03;95169.91;4969280;28;20224;-68
2022/06/29 05:14:35;;;;;;;13.27;12.18;;;;;;;19.32;68.49;95175.72;4966485;28;20224;-68
2022/06/29 05:17:01;;;;;;;14.77;13.63;;;;;;;19.22;68.50;95175.31;4972961;28;20297;-69
2022/06/29 05:19:26;;;;;;;16.40;14.93;;;;;;;19.19;68.13;95162.38;4969703;28;20629;-69
2022/06/29 05:21:51;;;;;;;16.08;14.77;;;;;;;19.27;68.34;95156.88;4960109;28;20232;-67
2022/06/29 05:24:17;;;;;;;16.85;15.23;;;;;;;19.19;69.63;95165.03;4969944;28;20235;-71
2022/06/29 05:26:42;;;;;;;18.02;16.42;;;;;;;19.25;69.93;95156.25;4964252;28;20308;-67
2022/06/29 05:29:08;;;;;;;17.42;15.77;;;;;;;18.98;70.93;95162.50;4964386;28;20262;-67
2022/06/29 05:31:33;;;;;;;18.60;16.65;;;;;;;19.27;70.48;95154.22;4964879;28;20215;-68
2022/06/29 05:33:59;;;;;;;17.27;15.85;;;;;;;19.41;69.69;95162.22;4980520;28;20228;-70
2022/06/29 05:36:24;;;;;;;18.00;16.42;;;;;;;19.43;69.28;95158.31;4965823;28;20259;-68
2022/06/29 05:38:49;;;;;;;18.13;16.52;;;;;;;19.27;70.73;95162.22;4970521;28;20224;-68
2022/06/29 05:41:15;;;;;;;18.23;16.70;;;;;;;19.53;69.73;95165.94;4965861;28;20318;-67
2022/06/29 05:43:41;;;;;;;18.13;16.33;;;;;;;19.67;68.08;95167.59;4990707;28;20278;-68
2022/06/29 05:46:06;;;;;;;17.60;15.93;;;;;;;19.52;67.96;95172.28;4961063;28;20323;-67
2022/06/29 05:48:32;;;;;;;17.92;16.23;;;;;;;18.86;70.11;95172.94;4982227;28;20228;-68
2022/06/29 05:50:58;;;;;;;18.10;16.50;;;;;;;19.03;70.36;95165.41;4963612;28;20231;-66
2022/06/29 05:53:23;;;;;;;18.15;16.60;;;;;;;19.53;69.10;95172.06;4973950;28;20242;-65
2022/06/29 05:55:49;;;;;;;18.00;16.08;;;;;;;19.57;70.05;95169.84;4961818;28;20223;-68
2022/06/29 05:58:18;;;;;;;18.17;16.40;;;;;;;19.68;69.23;95182.59;4965911;28;20235;-68
2022/06/29 06:00:45;;;;;;;17.90;16.15;;;;;;;19.73;67.99;95190.81;4970244;28;20775;-68
2022/06/29 06:03:10;;;;;;;16.63;15.32;;;;;;;19.76;68.19;95187.72;4969913;28;20235;-67
2022/06/29 06:05:36;;;;;;;16.10;14.65;;;;;;;19.81;68.10;95197.81;4962860;28;20224;-67
2022/06/29 06:08:01;;;;;;;17.35;15.82;;;;;;;19.90;68.12;95193.88;4962410;28;20698;-68
2022/06/29 06:10:26;;;;;;;18.27;16.38;;;;;;;20.03;67.76;95188.53;4963014;28;20241;-68
2022/06/29 06:12:52;;;;;;;18.98;17.02;;;;;;;20.04;67.88;95195.53;4966639;28;20727;-67
2022/06/29 06:15:17;;;;;;;19.10;17.40;;;;;;;20.15;67.30;95186.06;4977907;28;20224;-68
2022/06/29 06:17:43;;;;;;;17.20;15.70;;;;;;;20.07;66.88;95188.13;4975438;28;20274;-66
2022/06/29 06:20:09;;;;;;;18.13;16.48;;;;;;;19.99;66.39;95186.50;4966537;28;20225;-66
2022/06/29 06:22:34;;;;;;;17.25;15.43;;;;;;;20.04;66.27;95194.69;4965420;28;20244;-66
2022/06/29 06:25:00;;;;;;;17.42;15.60;;;;;;;20.02;66.84;95186.06;4960548;28;20255;-65
2022/06/29 06:27:25;;;;;;;16.90;15.30;;;;;;;20.20;66.02;95178.25;4965411;28;20595;-66
2022/06/29 06:29:51;;;;;;;18.67;16.98;;;;;;;20.11;65.14;95168.84;4963180;28;20327;-64
2022/06/29 06:32:16;;;;;;;16.60;15.05;;;;;;;20.24;64.62;95171.50;4967128;28;20221;-64
2022/06/29 06:34:42;;;;;;;16.60;15.00;;;;;;;20.27;64.32;95163.06;4966181;28;20208;-65
2022/06/29 06:37:07;;;;;;;16.75;15.10;;;;;;;20.14;64.72;95163.06;4965517;28;20570;-66
2022/06/29 06:39:32;;;;;;;17.33;14.73;;;;;;;20.32;63.37;95162.44;4960454;28;20312;-66
2022/06/29 06:41:58;;;;;;;16.83;15.32;;;;;;;20.34;64.34;95160.38;4965572;28;20739;-65
2022/06/29 06:44:23;;;;;;;15.77;14.35;;;;;;;20.35;64.15;95164.69;4966400;28;20315;-66
2022/06/29 06:46:49;;;;;;;18.25;14.13;;;;;;;20.39;63.75;95162.41;4969484;28;20219;-66
2022/06/29 06:49:29;;;;;;;17.05;15.45;;;;;;;20.52;64.06;95170.38;4964885;28;20236;-66
2022/06/29 06:51:54;;;;;;;18.27;16.38;;;;;;;20.57;64.04;95170.63;4965919;28;20221;-66
2022/06/29 06:54:19;;;;;;;18.83;16.90;;;;;;;20.74;63.12;95162.94;4969417;28;20880;-66
2022/06/29 06:56:45;;;;;;;16.92;15.40;;;;;;;20.70;63.63;95159.88;4964686;28;20617;-66
2022/06/29 06:59:11;;;;;;;18.17;14.77;;;;;;;20.83;63.53;95160.88;4963537;28;20318;-66
2022/06/29 07:01:36;;;;;;;15.48;14.18;;;;;;;20.69;63.74;95152.09;4966391;28;20309;-66
2022/06/29 07:04:02;;;;;;;16.33;14.82;;;;;;;20.84;64.30;95151.81;4967795;28;20259;-70
2022/06/29 07:06:27;;;;;;;16.52;14.88;;;;;;;20.82;63.88;95153.88;4965543;28;20235;-69
2022/06/29 07:08:54;;;;;;;21.00;18.92;;;;;;;20.96;65.10;95152.81;4959349;28;20676;-68
2022/06/29 07:11:19;;;;;;;16.63;15.07;;;;;;;21.08;62.29;95151.09;4969733;28;20220;-69
2022/06/29 07:13:45;;;;;;;14.60;13.30;;;;;;;20.89;61.91;95152.00;4968650;28;20563;-68
2022/06/29 07:16:11;;;;;;;15.38;13.88;;;;;;;20.97;63.15;95151.75;4964725;28;20211;-69
2022/06/29 07:18:37;;;;;;;15.35;13.70;;;;;;;21.06;63.49;95145.16;4968062;28;20321;-65
2022/06/29 07:21:02;;;;;;;14.65;12.43;;;;;;;21.25;61.98;95148.75;4968715;28;20566;-64
2022/06/29 07:23:28;;;;;;;13.82;12.15;;;;;;;21.31;61.03;95147.88;4968306;28;20799;-64
2022/06/29 07:25:54;;;;;;;12.52;11.52;;;;;;;21.45;60.18;95156.66;4963357;28;20753;-65
2022/06/29 07:28:20;;;;;;;14.90;12.95;;;;;;;21.44;60.26;95146.16;4956388;28;20684;-65
2022/06/29 07:30:45;;;;;;;13.75;12.23;;;;;;;21.55;60.58;95148.16;4961216;28;20224;-65
2022/06/29 07:33:11;;;;;;;12.65;11.52;;;;;;;21.64;60.99;95143.38;4973472;28;20224;-65
2022/06/29 07:35:37;;;;;;;13.35;12.15;;;;;;;21.77;60.98;95141.41;4951952;28;20319;-65
2022/06/29 07:38:03;;;;;;;13.23;11.82;;;;;;;21.80;61.17;95140.16;4955749;28;20222;-65
2022/06/29 07:40:28;;;;;;;13.57;12.27;;;;;;;21.78;61.00;95143.06;4957104;28;20208;-65
2022/06/29 07:42:53;;;;;;;13.75;12.40;;;;;;;21.82;60.46;95138.06;4964962;28;20302;-65
2022/06/29 07:45:19;;;;;;;13.57;12.25;;;;;;;21.89;61.05;95138.00;4970347;28;20355;-65
2022/06/29 07:47:45;;;;;;;12.95;11.65;;;;;;;21.86;61.59;95131.22;4962357;28;20537;-66
2022/06/29 07:50:11;;;;;;;12.50;10.88;;;;;;;21.99;59.11;95138.34;4960630;28;20289;-65
2022/06/29 07:52:38;;;;;;;12.35;11.10;;;;;;;22.11;59.08;95135.78;4973128;28;20226;-65
2022/06/29 07:55:04;;;;;;;12.55;11.45;;;;;;;22.02;59.08;95132.53;4960861;28;20216;-69
2022/06/29 07:57:29;;;;;;;13.98;12.50;;;;;;;22.00;59.24;95137.31;4947452;28;20597;-69
2022/06/29 07:59:54;;;;;;;13.23;11.93;;;;;;;22.04;58.84;95135.81;4959136;28;20223;-69
2022/06/29 08:02:20;;;;;;;13.18;11.32;;;;;;;22.16;58.78;95134.06;4964980;28;20228;-69
2022/06/29 08:04:45;;;;;;;12.55;11.38;;;;;;;22.28;58.88;95133.38;4969040;28;20236;-63
2022/06/29 08:07:11;;;;;;;13.80;10.73;;;;;;;22.38;58.04;95128.31;4963532;28;20215;-64
2022/06/29 08:09:36;;;;;;;11.88;10.65;;;;;;;22.37;59.00;95124.81;4962302;28;20220;-66
2022/06/29 08:12:02;;;;;;;12.07;10.98;;;;;;;22.43;59.05;95128.47;4962109;28;20724;-65
2022/06/29 08:14:28;;;;;;;12.02;10.80;;;;;;;22.53;59.04;95117.22;4966817;28;20822;-63
2022/06/29 08:16:54;;;;;;;12.90;11.48;;;;;;;22.60;58.58;95123.31;4976404;28;20204;-63
2022/06/29 08:19:19;;;;;;;14.85;11.27;;;;;;;22.61;57.31;95124.94;4964436;28;20211;-64
2022/06/29 08:21:45;;;;;;;12.07;10.23;;;;;;;22.60;56.88;95121.47;4962150;28;20221;-64
2022/06/29 08:24:10;;;;;;;11.73;9.90;;;;;;;22.70;56.09;95128.16;4966879;28;20255;-64
2022/06/29 08:26:36;;;;;;;13.02;9.77;;;;;;;22.65;56.50;95132.31;4973757;28;20304;-64
2022/06/29 08:29:02;;;;;;;9.85;8.85;;;;;;;22.66;56.15;95125.91;4968690;28;20227;-64
2022/06/29 08:31:28;;;;;;;10.15;9.25;;;;;;;22.74;55.56;95127.47;4962797;28;20650;-64
2022/06/29 08:33:53;;;;;;;13.10;9.57;;;;;;;22.87;55.59;95129.19;4960176;28;20228;-64
2022/06/29 08:36:19;;;;;;;10.00;7.65;;;;;;;22.92;53.47;95128.50;4963993;28;20341;-64
2022/06/29 08:38:44;;;;;;;7.03;6.43;;;;;;;22.99;53.78;95118.53;4958855;28;20246;-64
2022/06/29 08:41:10;;;;;;;7.85;6.90;;;;;;;23.13;54.22;95125.38;4951999;28;20237;-63
2022/06/29 08:43:36;;;;;;;7.50;6.90;;;;;;;23.21;54.52;95130.41;4951254;28;20304;-63
2022/06/29 08:46:03;;;;;;;8.85;8.02;;;;;;;23.31;54.91;95125.31;4964112;28;20733;-63
2022/06/29 08:48:30;;;;;;;8.52;7.50;;;;;;;23.39;53.63;95131.38;4961440;28;20235;-64
2022/06/29 08:50:56;;;;;;;7.15;5.97;;;;;;;23.40;51.94;95127.69;4964692;28;20710;-66
2022/06/29 08:53:23;;;;;;;6.95;5.60;;;;;;;23.46;49.21;95132.13;4959489;28;20280;-63
2022/06/29 08:55:51;;;;;;;7.60;4.80;;;;;;;23.54;47.46;95131.78;4963519;28;20493;-64
2022/06/29 08:58:24;;;;;;;5.82;4.80;;;;;;;23.57;47.17;95128.63;4969325;28;20492;-63
2022/06/29 09:00:51;;;;;;;8.32;5.63;;;;;;;23.72;49.17;95125.56;4961367;28;20309;-64
2022/06/29 09:03:19;;;;;;;5.70;5.13;;;;;;;23.73;48.67;95124.50;4960797;28;20235;-64
2022/06/29 09:05:54;;;;;;;7.78;5.72;;;;;;;23.75;50.02;95115.16;4975986;28;20739;-64
2022/06/29 09:08:21;;;;;;;6.45;5.88;;;;;;;23.80;49.22;95127.91;4952225;28;20655;-64
2022/06/29 09:10:47;;;;;;;6.63;5.95;;;;;;;23.77;49.66;95128.38;4968023;28;20209;-63
2022/06/29 09:13:21;;;;;;;6.70;5.97;;;;;;;23.83;49.03;95123.94;4970690;28;20486;-63
2022/06/29 09:15:56;;;;;;;5.75;5.22;;;;;;;23.85;49.48;95111.09;4972484;28;20231;-66
2022/06/29 09:18:32;;;;;;;7.15;5.75;;;;;;;23.96;48.92;95105.72;4967742;28;20226;-64
2022/06/29 09:21:03;;;;;;;9.32;6.00;;;;;;;24.06;49.79;95107.00;4962102;28;20219;-63
2022/06/29 09:23:30;;;;;;;10.52;5.65;;;;;;;24.12;49.08;95109.59;4975549;28;20280;-63
2022/06/29 09:25:56;;;;;;;7.15;6.45;;;;;;;24.29;50.40;95112.38;4961686;28;20204;-64
2022/06/29 09:28:25;;;;;;;9.57;7.10;;;;;;;24.38;50.53;95119.03;4971895;28;20315;-66
2022/06/29 09:30:53;;;;;;;5.88;5.28;;;;;;;24.43;48.12;95118.31;4965732;28;20275;-64
2022/06/29 09:33:21;;;;;;;6.32;5.47;;;;;;;24.57;47.24;95110.88;4975548;28;20227;-66
2022/06/29 09:36:04;;;;;;;6.60;5.50;;;;;;;24.64;48.30;95107.00;4979103;28;20228;-65
2022/06/29 09:38:29;;;;;;;9.57;5.32;;;;;;;24.73;45.77;95112.00;4963722;28;20228;-64
2022/06/29 09:41:01;;;;;;;6.35;5.57;;;;;;;24.95;46.99;95109.47;4965985;28;20283;-64
2022/06/29 09:43:27;;;;;;;5.20;4.68;;;;;;;25.06;46.83;95114.00;4967496;28;20220;-64
2022/06/29 09:45:54;;;;;;;5.22;4.70;;;;;;;25.14;44.21;95104.72;4970110;28;20731;-64
2022/06/29 09:48:23;;;;;;;7.03;4.80;;;;;;;25.21;45.92;95108.13;4972186;28;20227;-64
2022/06/29 09:50:51;;;;;;;5.53;5.03;;;;;;;25.36;46.25;95110.25;4960818;28;20625;-65
2022/06/29 09:53:18;;;;;;;7.47;5.00;;;;;;;25.43;46.29;95103.69;4960785;28;20224;-65
2022/06/29 09:55:48;;;;;;;5.40;5.00;;;;;;;25.53;45.47;95106.53;4966098;28;20204;-65
2022/06/29 09:58:18;;;;;;;4.97;4.57;;;;;;;25.65;45.22;95103.78;4966422;28;20247;-65
2022/06/29 10:03:32;;;;;;;5.13;4.60;;;;;;;25.82;44.53;95097.56;4965162;28;20266;-65
2022/06/29 10:06:05;;;;;;;6.57;4.70;;;;;;;25.78;43.05;95082.97;4970007;28;20224;-65
2022/06/29 10:08:35;;;;;;;5.95;5.07;;;;;;;25.87;43.73;95090.41;4957665;28;20221;-63
2022/06/29 10:13:39;;;;;;;5.28;4.50;;;;;;;26.10;43.68;95096.69;4962336;28;20258;-65
2022/06/29 10:14:01;;;;;;;6.28;4.40;;;;;;;26.23;41.77;95096.34;4966573;28;20304;-65
2022/06/29 10:16:45;;;;;;;5.78;3.90;;;;;;;26.15;41.06;95091.38;4968432;28;20204;-65
2022/06/29 10:19:34;;;;;;;5.63;4.57;;;;;;;26.29;41.92;95089.16;4961069;28;20220;-64
2022/06/29 10:22:01;;;;;;;6.38;4.85;;;;;;;26.44;42.29;95089.38;4967756;28;20229;-66
2022/06/29 10:24:27;;;;;;;7.13;4.55;;;;;;;26.55;42.56;95074.16;4967946;28;20220;-65
2022/06/29 10:26:53;;;;;;;4.65;3.83;;;;;;;26.76;40.28;95084.13;4969389;28;20221;-65
2022/06/29 10:29:18;;;;;;;5.60;3.80;;;;;;;26.83;39.45;95082.03;4968792;28;20235;-65
2022/06/29 10:31:50;;;;;;;4.95;4.55;;;;;;;26.98;39.67;95086.00;4960535;28;20485;-65
2022/06/29 10:34:31;;;;;;;4.38;3.80;;;;;;;26.84;37.35;95081.00;4956404;28;20700;-64
2022/06/29 10:37:03;;;;;;;4.38;3.80;;;;;;;26.95;39.40;95071.13;4960472;28;20650;-64
2022/06/29 10:39:54;;;;;;;4.45;4.05;;;;;;;27.06;39.26;95077.47;4966927;28;20232;-66
2022/06/29 10:45:15;;;;;;;4.97;4.38;;;;;;;27.38;38.41;95068.63;4961146;28;20270;-64
2022/06/29 10:47:57;;;;;;;5.47;4.28;;;;;;;27.50;38.19;95066.56;4965916;28;20603;-64
2022/06/29 10:50:26;;;;;;;7.28;4.22;;;;;;;27.70;38.33;95069.44;4965948;28;20219;-64
2022/06/29 10:52:54;;;;;;;5.47;4.07;;;;;;;27.85;37.33;95068.78;4953316;28;20216;-64
2022/06/29 10:55:21;;;;;;;5.10;4.20;;;;;;;27.93;37.63;95065.59;4968627;28;20288;-67
2022/06/29 10:57:47;;;;;;;6.53;4.28;;;;;;;27.96;38.00;95068.84;4965460;28;20219;-67
2022/06/29 11:00:34;;;;;;;5.03;4.55;;;;;;;28.01;37.99;95061.59;4962704;28;20277;-65
2022/06/29 11:03:11;;;;;;;4.45;3.65;;;;;;;28.09;37.91;95053.00;4948285;28;20323;-63
2022/06/29 11:05:38;;;;;;;4.32;3.92;;;;;;;28.18;37.82;95055.22;4952542;28;20224;-65
2022/06/29 11:13:32;;;;;;;4.05;3.60;;;;;;;28.38;35.98;95052.63;4968183;28;20263;-65
2022/06/29 11:15:59;;;;;;;3.92;3.22;;;;;;;28.48;35.41;95055.41;4970186;28;20231;-65
2022/06/29 11:18:29;;;;;;;4.05;3.70;;;;;;;28.54;34.96;95042.72;4969717;28;20269;-65
2022/06/29 11:21:03;;;;;;;3.45;3.22;;;;;;;28.51;32.59;95044.06;4964140;28;20236;-65
2022/06/29 11:23:34;;;;;;;5.07;3.20;;;;;;;28.59;33.86;95043.53;4967664;28;20235;-65
2022/06/29 11:26:03;;;;;;;5.35;3.20;;;;;;;28.70;32.72;95041.69;4963304;28;20258;-64
2022/06/29 11:28:30;;;;;;;5.22;3.80;;;;;;;28.76;33.42;95034.41;4949589;28;20216;-64
2022/06/29 11:31:04;;;;;;;3.72;3.42;;;;;;;28.67;36.38;95030.59;4954795;28;20221;-64
2022/06/29 11:33:32;;;;;;;3.72;3.42;;;;;;;28.71;32.27;95027.09;4967778;28;20231;-64
2022/06/29 11:36:05;;;;;;;4.15;3.35;;;;;;;28.83;33.56;95026.06;4962290;28;20320;-64
2022/06/29 11:38:30;;;;;;;3.50;3.20;;;;;;;28.96;32.60;95026.34;4970279;28;20234;-64
2022/06/29 11:40:55;;;;;;;3.85;3.55;;;;;;;29.05;32.75;95017.75;4951656;28;20235;-64
2022/06/29 11:43:21;;;;;;;4.35;3.42;;;;;;;29.12;32.73;95021.00;4962159;28;20592;-64
2022/06/29 11:45:52;;;;;;;4.78;3.60;;;;;;;29.18;31.43;95018.03;4959410;28;20232;-65